Time;durP1;ratioP1;P1;durP2;ratioP2;P2;SDS_P1;SDS_P2;PMS_P1;PMS_P2;Temp;Humidity;BMP_temperature;BMP_pressure;BME280_temperature;BME280_humidity;BME280_pressure;Samples;Min_cycle;Max_cycle;Signal;HPM_P1;HPM_P2
2022/03/16 00:01:59;;;;;;;2.30;1.40;;;2.60;99.90;;;;;;5028567;28;21034;-89
2022/03/16 00:04:24;;;;;;;1.67;1.57;;;2.60;99.90;;;;;;5030022;28;20184;-88
2022/03/16 00:06:50;;;;;;;1.13;1.03;;;2.60;99.90;;;;;;5028868;28;20826;-89
2022/03/16 00:09:16;;;;;;;1.30;1.20;;;2.60;99.90;;;;;;5027869;28;20186;-89
2022/03/16 00:11:41;;;;;;;2.73;2.57;;;2.70;99.90;;;;;;5027884;28;20663;-89
2022/03/16 00:14:07;;;;;;;1.40;1.30;;;2.70;99.90;;;;;;5038959;28;20651;-89
2022/03/16 00:16:32;;;;;;;1.67;1.57;;;2.70;99.90;;;;;;5002366;28;20216;-89
2022/03/16 00:18:59;;;;;;;1.20;1.10;;;2.70;99.90;;;;;;5021088;28;20191;-89
2022/03/16 00:21:24;;;;;;;7.33;1.67;;;2.70;99.90;;;;;;5014804;28;20913;-89
2022/03/16 00:23:50;;;;;;;1.67;1.57;;;2.70;99.90;;;;;;5029093;28;20576;-88
2022/03/16 00:26:15;;;;;;;1.03;0.93;;;2.80;99.90;;;;;;5030585;28;20191;-89
2022/03/16 00:28:41;;;;;;;2.50;1.47;;;2.80;99.90;;;;;;5014637;28;20188;-89
2022/03/16 00:31:07;;;;;;;1.47;1.20;;;2.80;99.90;;;;;;5027370;28;20269;-89
2022/03/16 00:33:32;;;;;;;1.00;0.90;;;2.60;99.90;;;;;;5013910;28;20199;-89
2022/03/16 00:35:58;;;;;;;1.73;1.63;;;2.80;99.90;;;;;;5040502;28;20195;-89
2022/03/16 00:38:23;;;;;;;1.23;1.13;;;2.80;99.90;;;;;;5038191;28;20242;-89
2022/03/16 00:40:49;;;;;;;0.90;0.80;;;2.80;99.90;;;;;;5028830;28;20188;-89
2022/03/16 00:43:14;;;;;;;1.40;1.30;;;2.80;99.90;;;;;;5029611;28;20342;-89
2022/03/16 00:45:40;;;;;;;2.13;2.03;;;2.80;99.90;;;;;;5011577;28;20190;-90
2022/03/16 00:48:06;;;;;;;0.90;0.80;;;2.70;99.90;;;;;;5029063;28;20187;-90
2022/03/16 00:50:32;;;;;;;3.33;1.50;;;2.60;99.90;;;;;;5030458;28;20279;-89
2022/03/16 00:52:57;;;;;;;4.90;2.70;;;2.40;99.90;;;;;;5002493;28;20206;-89
2022/03/16 00:55:23;;;;;;;1.80;1.70;;;2.40;99.90;;;;;;5010977;28;20445;-89
2022/03/16 00:57:49;;;;;;;1.10;1.00;;;2.30;99.90;;;;;;5029895;28;20195;-89
2022/03/16 01:00:14;;;;;;;2.20;2.10;;;2.40;99.90;;;;;;5030013;28;20630;-89
2022/03/16 01:02:40;;;;;;;1.17;1.07;;;2.40;99.90;;;;;;5029313;28;20227;-89
2022/03/16 01:05:06;;;;;;;0.83;0.70;;;2.40;99.90;;;;;;5027714;28;20195;-89
2022/03/16 01:07:31;;;;;;;3.73;3.53;;;2.40;99.90;;;;;;5025203;28;20199;-89
2022/03/16 01:09:57;;;;;;;1.00;0.90;;;2.40;99.90;;;;;;5031496;28;20482;-89
2022/03/16 01:12:23;;;;;;;2.87;2.67;;;2.40;99.90;;;;;;5035212;28;20260;-89
2022/03/16 01:14:49;;;;;;;1.40;1.27;;;2.50;99.90;;;;;;5035407;28;20590;-89
2022/03/16 01:17:14;;;;;;;0.90;0.80;;;2.40;99.90;;;;;;5030453;28;20541;-90
2022/03/16 01:19:40;;;;;;;1.10;1.00;;;2.40;99.90;;;;;;5021092;28;20554;-90
2022/03/16 01:22:06;;;;;;;1.20;1.10;;;2.40;99.90;;;;;;5026696;28;20211;-88
2022/03/16 01:24:32;;;;;;;0.83;0.80;;;2.40;99.90;;;;;;5015598;28;20195;-89
2022/03/16 01:26:58;;;;;;;1.30;1.20;;;2.40;99.90;;;;;;5031342;28;20440;-88
2022/03/16 01:29:26;;;;;;;1.27;1.17;;;2.40;99.90;;;;;;5038244;28;21035;-88
2022/03/16 01:31:53;;;;;;;1.33;1.23;;;2.30;99.90;;;;;;5029141;28;21194;-88
2022/03/16 01:34:19;;;;;;;0.90;0.80;;;2.40;99.90;;;;;;5025574;28;20495;-88
2022/03/16 01:36:45;;;;;;;1.70;1.60;;;2.40;99.90;;;;;;5029279;28;20484;-88
2022/03/16 01:39:10;;;;;;;1.17;1.07;;;2.30;99.90;;;;;;5024393;28;21059;-88
2022/03/16 01:41:36;;;;;;;1.00;0.90;;;2.30;99.90;;;;;;5028390;28;20533;-88
2022/03/16 01:44:03;;;;;;;0.90;0.80;;;2.40;99.90;;;;;;5029934;28;20258;-89
2022/03/16 01:46:28;;;;;;;1.00;0.90;;;2.40;99.90;;;;;;5035248;28;20650;-89
2022/03/16 01:48:54;;;;;;;0.90;0.80;;;2.20;99.90;;;;;;5028208;28;20446;-88
2022/03/16 01:51:21;;;;;;;1.00;0.90;;;2.20;99.90;;;;;;5027377;28;20186;-88
2022/03/16 01:53:47;;;;;;;0.83;0.80;;;2.30;99.90;;;;;;5028663;28;20274;-87
2022/03/16 01:56:15;;;;;;;1.67;1.57;;;2.20;99.90;;;;;;5032035;28;20450;-88
2022/03/16 01:58:40;;;;;;;1.00;0.90;;;2.30;99.90;;;;;;5027240;28;20466;-88
2022/03/16 02:01:06;;;;;;;3.90;1.43;;;2.20;99.90;;;;;;5028139;28;20452;-88
2022/03/16 02:03:31;;;;;;;1.47;1.37;;;2.20;99.90;;;;;;5028055;28;20223;-88
2022/03/16 02:05:57;;;;;;;1.07;1.00;;;2.20;99.90;;;;;;5040118;28;20187;-89
2022/03/16 02:08:22;;;;;;;1.60;1.43;;;2.20;99.90;;;;;;5029506;28;20210;-88
2022/03/16 02:10:48;;;;;;;1.00;0.90;;;2.20;99.90;;;;;;5028522;28;20180;-88
2022/03/16 02:13:14;;;;;;;0.83;0.80;;;2.30;99.90;;;;;;5028704;28;20191;-87
2022/03/16 02:15:39;;;;;;;1.00;0.90;;;2.30;99.90;;;;;;5045227;28;20635;-88
2022/03/16 02:18:06;;;;;;;1.00;0.90;;;2.30;99.90;;;;;;5026940;28;20219;-88
2022/03/16 02:20:31;;;;;;;1.00;0.90;;;2.30;99.90;;;;;;5030223;28;20184;-88
2022/03/16 02:22:59;;;;;;;1.10;1.00;;;2.40;99.90;;;;;;5027696;28;20526;-88
2022/03/16 02:25:27;;;;;;;1.00;0.90;;;2.40;99.90;;;;;;5028222;28;20651;-88
2022/03/16 02:27:53;;;;;;;1.63;1.53;;;2.40;99.90;;;;;;5030005;28;20945;-88
2022/03/16 02:30:20;;;;;;;0.80;0.70;;;2.40;99.90;;;;;;5029113;28;20426;-87
2022/03/16 02:32:46;;;;;;;1.00;0.90;;;2.50;99.90;;;;;;5028408;28;20891;-87
2022/03/16 02:35:11;;;;;;;2.60;1.30;;;2.40;99.90;;;;;;5027469;28;20495;-88
2022/03/16 02:37:39;;;;;;;1.77;1.67;;;2.50;99.90;;;;;;5024465;28;20438;-88
2022/03/16 02:40:06;;;;;;;1.83;1.73;;;2.50;99.90;;;;;;5030317;28;20718;-88
2022/03/16 02:42:32;;;;;;;1.20;1.10;;;2.50;99.90;;;;;;5041659;28;20489;-88
2022/03/16 02:44:58;;;;;;;2.60;1.93;;;2.50;99.90;;;;;;5040805;28;20536;-88
2022/03/16 02:47:24;;;;;;;1.27;1.17;;;2.50;99.90;;;;;;5028157;28;20200;-88
2022/03/16 02:49:51;;;;;;;1.40;1.30;;;2.50;99.90;;;;;;5042485;28;20307;-88
2022/03/16 02:52:17;;;;;;;1.30;1.20;;;2.40;99.90;;;;;;5031686;28;20937;-88
2022/03/16 02:54:42;;;;;;;1.97;1.77;;;2.40;99.90;;;;;;5034242;28;20440;-87
2022/03/16 02:57:08;;;;;;;2.13;1.93;;;2.50;99.90;;;;;;5034748;28;20435;-88
2022/03/16 02:59:35;;;;;;;0.83;0.80;;;2.50;99.90;;;;;;5032209;28;20187;-88
2022/03/16 03:02:00;;;;;;;0.97;0.87;;;2.50;99.90;;;;;;5029458;28;21172;-88
2022/03/16 03:04:26;;;;;;;0.90;0.80;;;2.50;99.90;;;;;;5030352;28;20454;-88
2022/03/16 03:06:51;;;;;;;0.80;0.80;;;2.50;99.90;;;;;;5030694;28;20194;-88
2022/03/16 03:09:17;;;;;;;1.00;0.90;;;2.50;99.90;;;;;;5033920;28;20200;-88
2022/03/16 03:11:45;;;;;;;1.30;1.20;;;2.50;99.90;;;;;;5042696;28;20277;-87
2022/03/16 03:14:11;;;;;;;1.83;1.57;;;2.50;99.90;;;;;;5034944;28;20581;-87
2022/03/16 03:16:36;;;;;;;1.30;1.20;;;2.40;99.90;;;;;;5023294;28;20457;-87
2022/03/16 03:19:02;;;;;;;1.63;1.53;;;2.50;99.90;;;;;;5030443;28;20215;-88
2022/03/16 03:21:28;;;;;;;1.33;1.23;;;2.50;99.90;;;;;;5036544;28;20191;-88
2022/03/16 03:23:53;;;;;;;0.93;0.83;;;2.50;99.90;;;;;;5031674;28;20222;-87
2022/03/16 03:26:22;;;;;;;1.20;1.10;;;2.40;99.90;;;;;;5030287;28;20268;-88
2022/03/16 03:28:48;;;;;;;0.97;0.87;;;2.50;99.90;;;;;;5029618;28;20249;-88
2022/03/16 03:31:14;;;;;;;1.10;1.00;;;2.30;99.90;;;;;;5030159;28;20462;-88
2022/03/16 03:33:40;;;;;;;1.10;1.00;;;2.40;99.90;;;;;;5029100;28;20969;-87
2022/03/16 03:36:05;;;;;;;1.00;0.90;;;2.40;99.90;;;;;;5040478;28;20189;-88
2022/03/16 03:38:30;;;;;;;1.20;1.10;;;2.40;99.90;;;;;;5040554;28;20227;-88
2022/03/16 03:40:56;;;;;;;1.67;1.57;;;2.50;99.90;;;;;;5028783;28;20194;-88
2022/03/16 03:43:22;;;;;;;2.40;2.30;;;2.50;99.90;;;;;;5035258;28;20327;-87
2022/03/16 03:45:47;;;;;;;1.50;1.40;;;2.40;99.90;;;;;;5031658;28;20194;-88
2022/03/16 03:48:13;;;;;;;0.90;0.80;;;2.30;99.90;;;;;;5031339;28;20191;-87
2022/03/16 03:50:38;;;;;;;1.10;1.00;;;2.20;99.90;;;;;;5023973;28;20180;-86
2022/03/16 03:53:04;;;;;;;0.90;0.80;;;2.20;99.90;;;;;;5012711;28;20188;-87
2022/03/16 03:55:29;;;;;;;1.00;0.90;;;2.30;99.90;;;;;;5014777;28;20223;-87
2022/03/16 03:57:57;;;;;;;1.63;1.53;;;2.20;99.90;;;;;;5035531;28;20191;-88
2022/03/16 04:00:23;;;;;;;0.90;0.80;;;2.20;99.90;;;;;;5018409;28;20585;-87
2022/03/16 04:02:50;;;;;;;1.33;1.23;;;2.20;99.90;;;;;;5029694;28;20481;-88
2022/03/16 04:05:19;;;;;;;1.00;0.90;;;2.20;99.90;;;;;;5031639;28;20442;-87
2022/03/16 04:07:45;;;;;;;1.00;0.90;;;2.20;99.90;;;;;;5027805;28;20442;-87
2022/03/16 04:10:11;;;;;;;2.13;2.03;;;2.10;99.90;;;;;;5012669;28;20473;-88
2022/03/16 04:12:37;;;;;;;0.80;0.80;;;2.10;99.90;;;;;;5038176;28;20455;-88
2022/03/16 04:15:04;;;;;;;1.00;0.90;;;2.10;99.90;;;;;;5030128;28;20797;-88
2022/03/16 04:17:30;;;;;;;1.17;1.07;;;2.10;99.90;;;;;;5029161;28;20442;-87
2022/03/16 04:19:55;;;;;;;1.10;1.00;;;2.10;99.90;;;;;;5032364;28;20437;-87
2022/03/16 04:22:21;;;;;;;1.50;1.40;;;2.10;99.90;;;;;;5033282;28;20211;-87
2022/03/16 04:24:46;;;;;;;1.20;1.10;;;2.10;99.90;;;;;;5030381;28;20199;-88
2022/03/16 04:27:12;;;;;;;1.20;1.10;;;2.10;99.90;;;;;;5028438;28;20179;-88
2022/03/16 04:29:38;;;;;;;1.60;1.50;;;2.10;99.90;;;;;;5028856;28;20559;-88
2022/03/16 04:32:04;;;;;;;1.87;1.53;;;2.10;99.90;;;;;;5028257;28;20183;-88
2022/03/16 04:34:29;;;;;;;2.43;2.30;;;2.00;99.90;;;;;;5030015;28;20294;-88
2022/03/16 04:36:55;;;;;;;0.93;0.83;;;2.10;99.90;;;;;;5031601;28;20651;-88
2022/03/16 04:39:20;;;;;;;2.40;1.63;;;2.00;99.90;;;;;;5017109;28;20297;-88
2022/03/16 04:41:46;;;;;;;1.43;1.33;;;2.00;99.90;;;;;;5030855;28;20195;-87
2022/03/16 04:44:11;;;;;;;1.10;1.00;;;2.00;99.90;;;;;;5026615;28;20226;-88
2022/03/16 04:46:37;;;;;;;0.90;0.80;;;1.90;99.90;;;;;;5032311;28;20198;-87
2022/03/16 04:49:03;;;;;;;1.47;1.37;;;1.90;99.90;;;;;;5042827;28;20199;-87
2022/03/16 04:51:28;;;;;;;1.10;1.00;;;1.90;99.90;;;;;;5040978;28;20441;-87
2022/03/16 04:53:54;;;;;;;1.10;1.00;;;1.90;99.90;;;;;;5048836;28;20187;-88
2022/03/16 04:56:19;;;;;;;1.20;1.10;;;2.00;99.90;;;;;;5033133;28;20187;-88
2022/03/16 04:58:45;;;;;;;1.10;1.00;;;1.90;99.90;;;;;;5025883;28;20199;-86
2022/03/16 05:01:10;;;;;;;0.87;0.80;;;2.00;99.90;;;;;;5027241;28;20246;-88
2022/03/16 05:03:36;;;;;;;1.20;1.10;;;1.90;99.90;;;;;;5028796;28;20223;-88
2022/03/16 05:06:01;;;;;;;1.73;1.63;;;1.90;99.90;;;;;;5030371;28;20271;-88
2022/03/16 05:08:27;;;;;;;3.30;3.03;;;1.90;99.90;;;;;;5025575;28;20202;-87
2022/03/16 05:10:52;;;;;;;1.07;0.97;;;1.80;99.90;;;;;;5019189;28;20228;-87
2022/03/16 05:13:18;;;;;;;1.90;1.80;;;1.80;99.90;;;;;;5010644;28;20180;-88
2022/03/16 05:15:44;;;;;;;1.20;1.10;;;1.80;99.90;;;;;;5028181;28;20270;-87
2022/03/16 05:18:09;;;;;;;1.20;1.10;;;1.80;99.90;;;;;;5029143;28;20381;-88
2022/03/16 05:20:35;;;;;;;1.20;1.10;;;1.90;99.90;;;;;;5039209;28;20218;-87
2022/03/16 05:23:00;;;;;;;1.10;1.00;;;1.80;99.90;;;;;;5038143;28;20226;-88
2022/03/16 05:25:30;;;;;;;0.80;0.80;;;1.90;99.90;;;;;;5035041;28;20195;-88
2022/03/16 05:27:56;;;;;;;1.10;1.00;;;1.80;99.90;;;;;;5030491;28;20190;-88
2022/03/16 05:30:23;;;;;;;0.80;0.80;;;1.80;99.90;;;;;;5029392;28;22053;-87
2022/03/16 05:32:52;;;;;;;2.03;1.77;;;1.80;99.90;;;;;;5028496;28;20442;-87
2022/03/16 05:35:18;;;;;;;1.77;1.67;;;1.70;99.90;;;;;;5029298;28;20732;-87
2022/03/16 05:37:43;;;;;;;1.30;1.20;;;1.70;99.90;;;;;;5037617;28;20520;-88
2022/03/16 05:40:10;;;;;;;0.80;0.80;;;1.80;99.90;;;;;;5011104;28;20243;-87
2022/03/16 05:42:36;;;;;;;1.30;1.20;;;1.80;99.90;;;;;;5038374;28;20265;-88
2022/03/16 05:45:03;;;;;;;2.43;1.30;;;1.80;99.90;;;;;;5008746;28;20468;-87
2022/03/16 05:47:28;;;;;;;1.10;1.00;;;1.70;99.90;;;;;;5009883;28;20442;-87
2022/03/16 05:49:54;;;;;;;1.00;0.90;;;1.70;99.90;;;;;;5026169;28;20488;-88
2022/03/16 05:52:21;;;;;;;1.10;1.00;;;1.70;99.90;;;;;;5007503;28;20183;-87
2022/03/16 05:54:57;;;;;;;1.00;0.90;;;1.80;99.90;;;;;;5026030;28;20527;-87
2022/03/16 05:57:23;;;;;;;1.10;1.00;;;1.70;99.90;;;;;;5029359;28;20441;-88
2022/03/16 05:59:49;;;;;;;1.20;1.10;;;1.60;99.90;;;;;;5028578;28;20453;-87
2022/03/16 06:02:15;;;;;;;1.00;0.90;;;1.80;99.90;;;;;;5009874;28;20470;-88
2022/03/16 06:04:43;;;;;;;1.57;1.47;;;1.80;99.90;;;;;;5027995;28;20461;-87
2022/03/16 06:07:09;;;;;;;1.30;1.20;;;1.80;99.90;;;;;;5029429;28;20431;-86
2022/03/16 06:09:35;;;;;;;1.00;0.90;;;1.90;99.90;;;;;;5027473;28;20456;-87
2022/03/16 06:12:02;;;;;;;1.20;1.10;;;1.80;99.90;;;;;;5023467;28;20450;-88
2022/03/16 06:14:28;;;;;;;1.10;1.00;;;2.00;99.90;;;;;;5026072;28;20233;-88
2022/03/16 06:16:54;;;;;;;1.00;0.90;;;1.90;99.90;;;;;;5031525;28;20449;-87
2022/03/16 06:19:20;;;;;;;1.20;1.10;;;1.90;99.90;;;;;;5026772;28;20964;-87
2022/03/16 06:21:46;;;;;;;1.10;1.00;;;2.00;99.90;;;;;;5033345;28;20606;-87
2022/03/16 06:24:12;;;;;;;1.17;1.07;;;2.00;99.90;;;;;;5035965;28;20564;-86
2022/03/16 06:26:38;;;;;;;0.90;0.80;;;2.00;99.90;;;;;;5033732;28;20425;-87
2022/03/16 06:29:04;;;;;;;1.20;1.10;;;2.00;99.90;;;;;;5013273;28;20218;-87
2022/03/16 06:31:30;;;;;;;0.80;0.80;;;2.10;99.90;;;;;;5032146;28;20460;-87
2022/03/16 06:33:55;;;;;;;2.00;1.90;;;2.00;99.90;;;;;;5010025;28;20447;-88
2022/03/16 06:36:21;;;;;;;1.27;1.00;;;2.00;99.90;;;;;;5035025;28;20305;-88
2022/03/16 06:38:47;;;;;;;0.90;0.80;;;2.10;99.90;;;;;;5019251;28;20238;-88
2022/03/16 06:41:13;;;;;;;1.40;1.30;;;2.20;99.90;;;;;;5029154;28;20273;-88
2022/03/16 06:43:38;;;;;;;1.30;1.20;;;2.20;99.90;;;;;;5020754;28;20492;-87
2022/03/16 06:46:04;;;;;;;1.57;1.40;;;2.20;99.90;;;;;;5025786;28;20199;-87
2022/03/16 06:48:30;;;;;;;1.83;1.43;;;2.10;99.90;;;;;;5024848;28;20199;-87
2022/03/16 06:50:57;;;;;;;2.13;1.17;;;2.20;99.90;;;;;;5037420;28;20197;-87
2022/03/16 06:53:25;;;;;;;1.00;0.90;;;2.20;99.90;;;;;;5031411;28;20553;-88
2022/03/16 06:55:50;;;;;;;2.03;1.30;;;2.30;99.90;;;;;;5037558;28;20448;-87
2022/03/16 06:58:16;;;;;;;1.03;0.93;;;2.30;99.90;;;;;;5029916;28;20823;-87
2022/03/16 07:00:42;;;;;;;2.50;2.30;;;2.40;99.90;;;;;;5031204;28;20808;-87
2022/03/16 07:03:08;;;;;;;1.10;1.00;;;2.40;99.90;;;;;;5031484;28;20626;-88
2022/03/16 07:05:38;;;;;;;2.37;2.27;;;2.40;99.90;;;;;;5034380;28;20186;-87
2022/03/16 07:08:07;;;;;;;4.83;3.70;;;2.40;99.90;;;;;;5040379;28;20184;-87
2022/03/16 07:10:34;;;;;;;0.90;0.80;;;2.50;99.90;;;;;;5031454;28;21010;-86
2022/03/16 07:13:00;;;;;;;1.27;1.17;;;2.60;99.90;;;;;;5034828;28;20481;-87
2022/03/16 07:15:25;;;;;;;0.97;0.87;;;2.70;99.90;;;;;;5026109;28;20846;-87
2022/03/16 07:17:51;;;;;;;0.80;0.80;;;2.80;99.90;;;;;;5032408;28;20454;-87
2022/03/16 07:20:28;;;;;;;1.70;1.60;;;2.90;99.90;;;;;;5035116;28;20426;-88
2022/03/16 07:23:09;;;;;;;1.27;1.17;;;2.80;99.90;;;;;;5032468;28;20325;-88
2022/03/16 07:25:35;;;;;;;1.33;1.23;;;2.80;99.90;;;;;;5038007;28;20960;-86
2022/03/16 07:28:00;;;;;;;1.67;1.50;;;2.80;99.90;;;;;;5033416;28;20445;-86
2022/03/16 07:30:26;;;;;;;1.00;0.90;;;2.90;99.90;;;;;;5041298;28;20220;-87
2022/03/16 07:32:51;;;;;;;1.00;0.90;;;2.80;99.90;;;;;;5026746;28;20197;-87
2022/03/16 07:35:17;;;;;;;0.97;0.87;;;2.70;99.90;;;;;;5034128;28;20709;-87
2022/03/16 07:37:43;;;;;;;1.20;1.10;;;2.70;99.90;;;;;;5027782;28;20667;-86
2022/03/16 07:40:09;;;;;;;0.90;0.80;;;2.80;99.90;;;;;;5028464;28;20234;-88
2022/03/16 07:42:36;;;;;;;1.63;1.53;;;2.60;99.90;;;;;;5029251;28;20486;-88
2022/03/16 07:45:03;;;;;;;1.30;1.20;;;2.80;99.90;;;;;;5018705;28;20445;-87
2022/03/16 07:47:29;;;;;;;0.90;0.80;;;2.90;99.90;;;;;;5027698;28;20456;-87
2022/03/16 07:50:00;;;;;;;2.17;2.07;;;2.80;99.90;;;;;;5036170;28;20446;-87
2022/03/16 07:52:26;;;;;;;1.00;0.90;;;2.90;99.90;;;;;;5013467;28;20183;-87
2022/03/16 07:54:51;;;;;;;1.33;1.23;;;2.80;99.90;;;;;;5033116;28;20532;-86
2022/03/16 07:57:17;;;;;;;1.00;0.90;;;2.90;99.90;;;;;;5028174;28;20197;-87
2022/03/16 07:59:43;;;;;;;0.80;0.70;;;3.00;99.90;;;;;;5038930;28;20944;-86
2022/03/16 08:02:09;;;;;;;0.90;0.80;;;3.10;99.90;;;;;;5012154;28;20198;-87
2022/03/16 08:04:35;;;;;;;1.67;1.57;;;2.80;99.90;;;;;;5027782;28;20453;-86
2022/03/16 08:07:00;;;;;;;0.90;0.80;;;3.00;99.90;;;;;;5019579;28;20806;-87
2022/03/16 08:09:26;;;;;;;0.90;0.80;;;3.10;99.90;;;;;;5021491;28;20842;-89
2022/03/16 08:11:51;;;;;;;1.00;0.90;;;3.10;99.90;;;;;;5019924;28;20259;-95
2022/03/16 08:14:17;;;;;;;0.97;0.87;;;3.10;99.90;;;;;;5018752;28;20184;-80
2022/03/16 08:16:43;;;;;;;1.00;0.90;;;3.20;99.90;;;;;;5018323;28;20195;-89
2022/03/16 08:19:08;;;;;;;1.10;1.00;;;3.30;99.90;;;;;;5002078;28;20589;-88
2022/03/16 08:21:34;;;;;;;2.50;1.40;;;3.30;99.90;;;;;;5020610;28;20190;-86
2022/03/16 08:24:00;;;;;;;1.43;1.33;;;3.40;99.90;;;;;;5021158;28;20247;-87
2022/03/16 08:26:25;;;;;;;1.73;1.63;;;3.40;99.90;;;;;;5020018;28;20246;-89
2022/03/16 08:28:51;;;;;;;1.73;1.33;;;3.40;99.90;;;;;;5025831;28;20215;-94
2022/03/16 08:31:18;;;;;;;0.87;0.80;;;3.30;99.90;;;;;;5020357;28;20188;-85
2022/03/16 08:33:44;;;;;;;0.90;0.80;;;3.50;99.90;;;;;;5019988;28;20492;-89
2022/03/16 08:36:11;;;;;;;1.23;1.13;;;3.40;99.90;;;;;;5019607;28;20439;-93
2022/03/16 08:38:37;;;;;;;0.90;0.80;;;3.60;99.90;;;;;;5020013;28;20235;-85
2022/03/16 08:41:04;;;;;;;3.90;1.73;;;3.50;99.90;;;;;;5020096;28;20449;-87
2022/03/16 08:43:29;;;;;;;1.00;0.90;;;3.40;99.90;;;;;;5023521;28;20482;-85
2022/03/16 08:45:55;;;;;;;2.80;1.70;;;3.50;99.90;;;;;;5026210;28;20819;-82
2022/03/16 08:48:21;;;;;;;1.73;1.63;;;3.40;99.90;;;;;;5034376;28;20202;-83
2022/03/16 08:50:47;;;;;;;1.47;1.37;;;3.40;99.90;;;;;;5024481;28;20333;-87
2022/03/16 08:53:12;;;;;;;1.50;1.40;;;3.50;99.90;;;;;;5029143;28;20449;-87
2022/03/16 08:55:38;;;;;;;1.17;1.07;;;3.70;99.90;;;;;;5031431;28;20206;-84
2022/03/16 08:58:04;;;;;;;1.47;1.37;;;3.80;99.90;;;;;;5020697;28;20299;-87
2022/03/16 09:00:29;;;;;;;0.90;0.80;;;3.90;99.90;;;;;;5025533;28;20245;-82
2022/03/16 09:02:56;;;;;;;1.00;0.90;;;3.90;99.90;;;;;;5027325;28;20486;-82
2022/03/16 09:05:22;;;;;;;2.53;2.43;;;4.00;99.90;;;;;;5019153;28;20198;-81
2022/03/16 09:07:48;;;;;;;1.63;1.50;;;4.10;99.90;;;;;;5001859;28;20443;-82
2022/03/16 09:10:14;;;;;;;0.90;0.73;;;4.20;99.90;;;;;;5021373;28;20184;-81
2022/03/16 09:15:15;;;;;;;1.13;1.03;;;4.30;99.90;;;;;;4792884;23;21007;-84
2022/03/16 09:17:40;;;;;;;1.10;0.90;;;4.10;99.90;;;;;;5018052;28;20442;-87
2022/03/16 09:20:06;;;;;;;1.00;0.90;;;4.10;99.90;;;;;;5002809;28;20183;-88
2022/03/16 09:44:03;;;;;;;1.10;1.00;;;4.60;99.90;;;;;;4402127;28;20498;-80
2022/03/16 09:46:39;;;;;;;0.90;0.80;;;4.70;99.90;;;;;;5024033;28;20838;-78
2022/03/16 09:49:04;;;;;;;2.57;1.93;;;4.60;99.90;;;;;;5025346;28;20506;-80
2022/03/16 09:51:35;;;;;;;0.90;0.70;;;4.70;99.90;;;;;;5013942;28;20442;-85
2022/03/16 09:54:04;;;;;;;5.13;1.17;;;5.00;99.90;;;;;;5021433;28;20477;-86
2022/03/16 09:56:32;;;;;;;1.40;1.30;;;5.20;99.90;;;;;;5001671;28;20437;-83
2022/03/16 09:58:57;;;;;;;0.90;0.70;;;5.10;99.90;;;;;;5001215;28;20450;-89
2022/03/16 10:01:23;;;;;;;0.80;0.70;;;5.10;99.90;;;;;;5020257;28;20917;-88
2022/03/16 10:03:50;;;;;;;1.10;1.00;;;5.30;99.90;;;;;;5015922;28;20254;-87
2022/03/16 10:06:17;;;;;;;1.50;1.40;;;5.40;99.90;;;;;;5011610;28;20179;-86
2022/03/16 10:14:19;;;;;;;0.90;0.70;;;5.80;99.90;;;;;;5048972;28;20890;-87
2022/03/16 10:19:51;;;;;;;0.80;0.70;;;6.40;99.90;;;;;;5025696;28;20203;-87
2022/03/16 10:22:27;;;;;;;1.40;1.30;;;6.50;99.90;;;;;;5018705;28;20657;-88
2022/03/16 10:25:00;;;;;;;0.80;0.60;;;6.50;99.90;;;;;;5019650;28;20453;-87
2022/03/16 10:27:26;;;;;;;1.07;0.87;;;6.60;99.90;;;;;;5019699;28;20521;-87
2022/03/16 10:29:53;;;;;;;1.10;1.00;;;6.70;99.90;;;;;;5020306;28;20874;-87
2022/03/16 10:32:22;;;;;;;2.73;2.63;;;7.00;99.90;;;;;;5001755;28;20451;-88
2022/03/16 10:34:49;;;;;;;0.90;0.73;;;6.70;99.90;;;;;;5031796;28;20437;-87
2022/03/16 10:37:22;;;;;;;0.90;0.80;;;6.80;99.90;;;;;;5027508;28;20798;-86
2022/03/16 10:39:50;;;;;;;1.00;0.80;;;7.00;99.90;;;;;;5012872;28;20446;-86
2022/03/16 10:48:16;;;;;;;0.80;0.70;;;7.10;99.90;;;;;;5034374;28;20531;-87
2022/03/16 10:50:43;;;;;;;8.90;2.00;;;7.40;99.90;;;;;;5020948;28;20447;-87
2022/03/16 10:53:14;;;;;;;0.90;0.70;;;7.00;99.90;;;;;;5022733;28;20945;-81
2022/03/16 10:55:40;;;;;;;1.33;1.23;;;7.00;99.90;;;;;;5005689;28;20442;-81
2022/03/16 10:58:07;;;;;;;1.00;0.90;;;7.30;99.90;;;;;;5021975;28;20418;-81
2022/03/16 11:00:35;;;;;;;1.53;0.93;;;7.50;99.90;;;;;;5021161;28;20588;-81
2022/03/16 11:03:06;;;;;;;0.90;0.80;;;7.60;99.90;;;;;;5022508;28;20473;-82
2022/03/16 11:05:42;;;;;;;3.93;0.90;;;7.90;99.90;;;;;;5023234;28;20444;-82
2022/03/16 11:08:09;;;;;;;3.63;3.43;;;8.50;99.90;;;;;;5022752;28;20457;-81
2022/03/16 11:10:39;;;;;;;1.20;0.90;;;8.80;99.90;;;;;;5017831;28;20533;-79
2022/03/16 11:15:55;;;;;;;2.13;1.43;;;9.70;99.90;;;;;;5021877;28;20484;-81
2022/03/16 11:18:22;;;;;;;0.90;0.60;;;10.60;99.90;;;;;;5022872;28;20472;-81
2022/03/16 11:20:50;;;;;;;2.27;1.03;;;11.30;99.90;;;;;;5023056;28;20505;-82
2022/03/16 11:26:34;;;;;;;3.33;2.10;;;11.30;99.90;;;;;;5022460;28;20504;-92
2022/03/16 11:29:00;;;;;;;2.40;0.80;;;11.50;99.90;;;;;;5026020;28;20430;-87
2022/03/16 11:31:30;;;;;;;1.23;0.87;;;11.20;99.90;;;;;;5029220;28;20477;-88
2022/03/16 11:33:59;;;;;;;2.70;1.57;;;11.70;99.90;;;;;;5028688;28;20955;-89
2022/03/16 11:36:32;;;;;;;5.03;0.90;;;11.30;99.90;;;;;;5031177;28;20477;-89
2022/03/16 11:38:59;;;;;;;2.13;1.93;;;12.20;99.90;;;;;;5030679;28;20450;-89
2022/03/16 11:41:30;;;;;;;1.67;1.27;;;13.00;99.90;;;;;;5013156;28;20440;-88
2022/03/16 11:44:20;;;;;;;1.20;0.83;;;12.70;99.90;;;;;;5031550;28;20509;-88
2022/03/16 11:46:46;;;;;;;1.37;1.27;;;12.70;99.90;;;;;;5015861;28;20446;-89
2022/03/16 11:49:11;;;;;;;1.13;0.60;;;12.90;99.90;;;;;;5008126;28;20458;-90
2022/03/16 11:51:43;;;;;;;4.57;1.60;;;13.00;99.90;;;;;;5022460;28;20207;-90
2022/03/16 11:54:09;;;;;;;2.37;0.87;;;12.90;99.90;;;;;;5004640;28;20267;-89
2022/03/16 11:56:35;;;;;;;0.90;0.57;;;13.00;99.90;;;;;;5005830;28;20454;-89
2022/03/16 11:59:05;;;;;;;1.50;0.87;;;13.50;99.90;;;;;;5024309;28;20496;-90
2022/03/16 12:01:37;;;;;;;2.97;1.20;;;13.60;99.90;;;;;;5022546;28;20206;-91
2022/03/16 12:04:13;;;;;;;1.20;0.67;;;12.40;99.90;;;;;;5027737;28;20490;-92
2022/03/16 12:07:01;;;;;;;1.20;0.93;;;12.10;99.90;;;;;;5027237;28;20423;-91
2022/03/16 12:09:34;;;;;;;0.80;0.50;;;12.30;99.90;;;;;;5008651;28;20526;-91
2022/03/16 12:15:19;;;;;;;1.00;0.70;;;12.20;99.90;;;;;;5022771;28;20438;-91
2022/03/16 12:17:51;;;;;;;1.10;0.80;;;12.20;99.90;;;;;;5025959;28;20496;-89
2022/03/16 12:20:38;;;;;;;1.20;0.70;;;11.70;99.90;;;;;;5007826;28;20442;-90
2022/03/16 12:23:09;;;;;;;1.00;0.60;;;11.90;99.90;;;;;;5021395;28;21131;-88
2022/03/16 12:25:37;;;;;;;0.90;0.50;;;11.40;99.90;;;;;;5020191;28;20466;-83
2022/03/16 12:31:15;;;;;;;0.90;0.60;;;12.10;99.90;;;;;;5020125;28;20930;-79
2022/03/16 12:33:53;;;;;;;2.60;1.23;;;12.10;99.90;;;;;;5020523;28;20449;-81
2022/03/16 12:36:29;;;;;;;0.80;0.50;;;11.80;99.90;;;;;;5035196;28;20442;-86
2022/03/16 12:39:05;;;;;;;1.00;0.80;;;11.90;99.90;;;;;;5021467;28;20487;-79
2022/03/16 12:44:17;;;;;;;1.33;1.03;;;12.20;99.90;;;;;;5027599;28;20497;-81
2022/03/16 12:46:51;;;;;;;1.63;1.43;;;12.20;99.90;;;;;;5013204;28;20525;-82
2022/03/16 12:49:20;;;;;;;1.13;1.03;;;12.30;99.90;;;;;;5011712;28;20449;-81
2022/03/16 12:51:53;;;;;;;1.03;0.87;;;12.40;99.90;;;;;;5009739;28;20442;-81
2022/03/16 12:54:22;;;;;;;2.07;1.33;;;12.30;99.90;;;;;;5030197;28;20446;-81
2022/03/16 12:56:50;;;;;;;1.10;0.63;;;12.50;99.90;;;;;;5033528;28;20450;-81
2022/03/16 12:59:29;;;;;;;1.00;0.70;;;12.70;99.90;;;;;;5033507;28;20438;-82
2022/03/16 13:01:56;;;;;;;1.10;0.60;;;13.70;99.90;;;;;;5029753;28;20934;-83
2022/03/16 13:04:23;;;;;;;1.00;0.90;;;15.30;99.90;;;;;;5028053;28;20517;-82
2022/03/16 13:06:52;;;;;;;0.80;0.50;;;16.00;99.90;;;;;;5025568;28;20979;-83
2022/03/16 13:09:17;;;;;;;1.57;1.23;;;16.30;99.90;;;;;;5016636;28;20469;-84
2022/03/16 13:11:43;;;;;;;1.33;0.93;;;16.10;99.90;;;;;;5001752;28;20446;-85
2022/03/16 13:14:16;;;;;;;0.90;0.50;;;17.00;99.90;;;;;;5015918;28;20199;-85
2022/03/16 13:16:47;;;;;;;1.00;0.50;;;17.40;99.90;;;;;;5022669;28;20224;-85
2022/03/16 13:19:25;;;;;;;0.90;0.60;;;18.10;99.90;;;;;;5016773;28;21022;-86
2022/03/16 13:22:07;;;;;;;1.00;0.70;;;17.70;99.90;;;;;;5023018;28;21012;-85
2022/03/16 13:24:36;;;;;;;0.90;0.40;;;17.80;99.90;;;;;;5027248;28;20508;-85
2022/03/16 13:27:05;;;;;;;2.20;1.20;;;17.50;99.90;;;;;;5033600;28;20465;-85
2022/03/16 13:29:33;;;;;;;1.17;0.60;;;16.70;99.90;;;;;;5020861;28;21129;-85
2022/03/16 13:32:00;;;;;;;1.10;0.90;;;16.00;99.90;;;;;;5024117;28;20503;-84
2022/03/16 13:34:26;;;;;;;0.80;0.40;;;15.80;99.90;;;;;;5028037;28;20438;-85
2022/03/16 13:36:55;;;;;;;0.93;0.77;;;15.30;99.90;;;;;;5027190;28;20442;-82
2022/03/16 13:39:31;;;;;;;0.90;0.53;;;14.70;99.90;;;;;;5026841;28;20183;-82
2022/03/16 13:42:07;;;;;;;1.17;0.83;;;14.00;99.90;;;;;;5023049;28;21312;-82
2022/03/16 13:44:40;;;;;;;0.90;0.67;;;13.60;99.90;;;;;;5031825;28;20477;-82
2022/03/16 13:47:11;;;;;;;0.90;0.50;;;13.50;99.90;;;;;;5041317;28;20465;-82
2022/03/16 13:49:38;;;;;;;0.90;0.50;;;13.50;99.90;;;;;;5040129;28;20983;-82